sensor_id;sensor_type;location;lat;lon;timestamp;P1;durP1;ratioP1;P2;durP2;ratioP2
46505;SDS011;32220;49.808;9.968;2023-04-15T00:00:56;2.50;;;2.30;;
46505;SDS011;32220;49.808;9.968;2023-04-15T00:03:26;2.70;;;2.30;;
46505;SDS011;32220;49.808;9.968;2023-04-15T00:05:54;2.27;;;2.03;;
46505;SDS011;32220;49.808;9.968;2023-04-15T00:08:22;2.83;;;2.57;;
46505;SDS011;32220;49.808;9.968;2023-04-15T00:10:50;3.60;;;2.43;;
46505;SDS011;32220;49.808;9.968;2023-04-15T00:13:18;2.60;;;2.37;;
46505;SDS011;32220;49.808;9.968;2023-04-15T00:15:45;3.10;;;2.30;;
46505;SDS011;32220;49.808;9.968;2023-04-15T00:18:13;4.43;;;2.50;;
46505;SDS011;32220;49.808;9.968;2023-04-15T00:20:42;3.33;;;2.70;;
46505;SDS011;32220;49.808;9.968;2023-04-15T00:23:10;4.73;;;2.60;;
46505;SDS011;32220;49.808;9.968;2023-04-15T00:25:37;4.33;;;2.80;;
46505;SDS011;32220;49.808;9.968;2023-04-15T00:28:05;2.50;;;2.30;;
46505;SDS011;32220;49.808;9.968;2023-04-15T00:30:33;5.13;;;3.17;;
46505;SDS011;32220;49.808;9.968;2023-04-15T00:33:01;3.20;;;2.90;;
46505;SDS011;32220;49.808;9.968;2023-04-15T00:35:28;2.60;;;2.30;;
46505;SDS011;32220;49.808;9.968;2023-04-15T00:37:59;4.13;;;2.63;;
46505;SDS011;32220;49.808;9.968;2023-04-15T00:40:26;3.33;;;3.00;;
46505;SDS011;32220;49.808;9.968;2023-04-15T00:42:54;3.30;;;2.90;;
46505;SDS011;32220;49.808;9.968;2023-04-15T00:45:21;2.13;;;1.90;;
46505;SDS011;32220;49.808;9.968;2023-04-15T00:47:49;3.40;;;2.67;;
46505;SDS011;32220;49.808;9.968;2023-04-15T00:50:17;2.47;;;2.27;;
46505;SDS011;32220;49.808;9.968;2023-04-15T00:52:44;2.80;;;2.30;;
46505;SDS011;32220;49.808;9.968;2023-04-15T00:55:13;3.87;;;2.67;;
46505;SDS011;32220;49.808;9.968;2023-04-15T00:57:41;4.33;;;2.87;;
46505;SDS011;32220;49.808;9.968;2023-04-15T01:00:09;3.23;;;2.80;;
46505;SDS011;32220;49.808;9.968;2023-04-15T01:02:38;5.13;;;3.53;;
46505;SDS011;32220;49.808;9.968;2023-04-15T01:05:06;4.40;;;2.90;;
46505;SDS011;32220;49.808;9.968;2023-04-15T01:07:34;3.00;;;2.70;;
46505;SDS011;32220;49.808;9.968;2023-04-15T01:10:02;2.67;;;2.30;;
46505;SDS011;32220;49.808;9.968;2023-04-15T01:12:31;2.43;;;2.23;;
46505;SDS011;32220;49.808;9.968;2023-04-15T01:15:01;2.47;;;2.27;;
46505;SDS011;32220;49.808;9.968;2023-04-15T01:17:28;2.33;;;2.13;;
46505;SDS011;32220;49.808;9.968;2023-04-15T01:19:56;2.90;;;2.40;;
46505;SDS011;32220;49.808;9.968;2023-04-15T01:22:24;3.33;;;3.03;;
46505;SDS011;32220;49.808;9.968;2023-04-15T01:24:54;3.43;;;2.63;;
46505;SDS011;32220;49.808;9.968;2023-04-15T01:27:28;4.17;;;3.33;;
46505;SDS011;32220;49.808;9.968;2023-04-15T01:29:56;3.87;;;3.57;;
46505;SDS011;32220;49.808;9.968;2023-04-15T01:32:24;3.33;;;3.03;;
46505;SDS011;32220;49.808;9.968;2023-04-15T01:35:10;3.40;;;3.10;;
46505;SDS011;32220;49.808;9.968;2023-04-15T01:37:47;3.00;;;2.70;;
46505;SDS011;32220;49.808;9.968;2023-04-15T01:40:16;2.83;;;2.60;;
46505;SDS011;32220;49.808;9.968;2023-04-15T01:42:46;3.00;;;2.70;;
46505;SDS011;32220;49.808;9.968;2023-04-15T01:45:16;3.97;;;2.83;;
46505;SDS011;32220;49.808;9.968;2023-04-15T01:47:45;3.80;;;3.40;;
46505;SDS011;32220;49.808;9.968;2023-04-15T01:50:15;4.53;;;3.03;;
46505;SDS011;32220;49.808;9.968;2023-04-15T01:52:45;3.03;;;2.73;;
46505;SDS011;32220;49.808;9.968;2023-04-15T01:55:14;3.30;;;3.00;;
46505;SDS011;32220;49.808;9.968;2023-04-15T01:57:43;3.90;;;3.23;;
46505;SDS011;32220;49.808;9.968;2023-04-15T02:00:14;3.40;;;2.83;;
46505;SDS011;32220;49.808;9.968;2023-04-15T02:02:43;3.07;;;2.77;;
46505;SDS011;32220;49.808;9.968;2023-04-15T02:05:12;3.73;;;3.03;;
46505;SDS011;32220;49.808;9.968;2023-04-15T02:07:47;3.90;;;3.17;;
46505;SDS011;32220;49.808;9.968;2023-04-15T02:10:16;3.90;;;3.20;;
46505;SDS011;32220;49.808;9.968;2023-04-15T02:12:45;5.57;;;3.07;;
46505;SDS011;32220;49.808;9.968;2023-04-15T02:15:16;3.70;;;3.27;;
46505;SDS011;32220;49.808;9.968;2023-04-15T02:17:45;3.40;;;2.90;;
46505;SDS011;32220;49.808;9.968;2023-04-15T02:20:17;3.60;;;3.30;;
46505;SDS011;32220;49.808;9.968;2023-04-15T02:22:47;3.67;;;3.03;;
46505;SDS011;32220;49.808;9.968;2023-04-15T02:25:16;3.30;;;2.97;;
46505;SDS011;32220;49.808;9.968;2023-04-15T02:27:46;3.13;;;2.83;;
46505;SDS011;32220;49.808;9.968;2023-04-15T02:30:19;3.23;;;2.90;;
46505;SDS011;32220;49.808;9.968;2023-04-15T02:32:50;3.20;;;2.90;;
46505;SDS011;32220;49.808;9.968;2023-04-15T02:35:19;4.50;;;3.33;;
46505;SDS011;32220;49.808;9.968;2023-04-15T02:37:48;5.03;;;3.40;;
46505;SDS011;32220;49.808;9.968;2023-04-15T02:40:18;6.47;;;3.63;;
46505;SDS011;32220;49.808;9.968;2023-04-15T02:42:47;4.10;;;3.70;;
46505;SDS011;32220;49.808;9.968;2023-04-15T02:45:19;3.67;;;3.37;;
46505;SDS011;32220;49.808;9.968;2023-04-15T02:47:50;5.30;;;4.27;;
46505;SDS011;32220;49.808;9.968;2023-04-15T02:50:19;5.93;;;4.47;;
46505;SDS011;32220;49.808;9.968;2023-04-15T02:52:49;5.80;;;3.70;;
46505;SDS011;32220;49.808;9.968;2023-04-15T02:55:18;4.43;;;4.03;;
46505;SDS011;32220;49.808;9.968;2023-04-15T02:57:48;3.57;;;3.27;;
46505;SDS011;32220;49.808;9.968;2023-04-15T03:00:17;3.43;;;3.13;;
46505;SDS011;32220;49.808;9.968;2023-04-15T03:02:49;5.40;;;3.87;;
46505;SDS011;32220;49.808;9.968;2023-04-15T03:05:22;4.17;;;3.70;;
46505;SDS011;32220;49.808;9.968;2023-04-15T03:07:52;5.13;;;3.70;;
46505;SDS011;32220;49.808;9.968;2023-04-15T03:10:21;4.67;;;3.80;;
46505;SDS011;32220;49.808;9.968;2023-04-15T03:12:50;6.20;;;4.17;;
46505;SDS011;32220;49.808;9.968;2023-04-15T03:15:22;5.27;;;4.00;;
46505;SDS011;32220;49.808;9.968;2023-04-15T03:17:54;5.67;;;3.87;;
46505;SDS011;32220;49.808;9.968;2023-04-15T03:20:23;5.47;;;3.50;;
46505;SDS011;32220;49.808;9.968;2023-04-15T03:22:52;4.13;;;3.63;;
46505;SDS011;32220;49.808;9.968;2023-04-15T03:25:23;4.17;;;3.80;;
46505;SDS011;32220;49.808;9.968;2023-04-15T03:27:53;7.23;;;4.30;;
46505;SDS011;32220;49.808;9.968;2023-04-15T03:30:22;4.37;;;3.97;;
46505;SDS011;32220;49.808;9.968;2023-04-15T03:32:51;5.47;;;3.87;;
46505;SDS011;32220;49.808;9.968;2023-04-15T03:35:22;4.57;;;4.07;;
46505;SDS011;32220;49.808;9.968;2023-04-15T03:37:51;4.27;;;3.57;;
46505;SDS011;32220;49.808;9.968;2023-04-15T03:40:20;4.00;;;3.70;;
46505;SDS011;32220;49.808;9.968;2023-04-15T03:42:49;5.63;;;3.80;;
46505;SDS011;32220;49.808;9.968;2023-04-15T03:45:18;4.07;;;3.50;;
46505;SDS011;32220;49.808;9.968;2023-04-15T03:47:47;4.00;;;3.03;;
46505;SDS011;32220;49.808;9.968;2023-04-15T03:50:16;4.03;;;3.23;;
46505;SDS011;32220;49.808;9.968;2023-04-15T03:52:46;4.90;;;3.37;;
46505;SDS011;32220;49.808;9.968;2023-04-15T03:55:15;3.57;;;3.23;;
46505;SDS011;32220;49.808;9.968;2023-04-15T03:57:44;3.47;;;2.83;;
46505;SDS011;32220;49.808;9.968;2023-04-15T04:00:13;5.50;;;3.40;;
46505;SDS011;32220;49.808;9.968;2023-04-15T04:02:42;4.77;;;3.53;;
46505;SDS011;32220;49.808;9.968;2023-04-15T04:05:12;4.17;;;3.77;;
46505;SDS011;32220;49.808;9.968;2023-04-15T04:07:41;4.80;;;3.27;;
46505;SDS011;32220;49.808;9.968;2023-04-15T04:10:11;3.20;;;2.90;;
46505;SDS011;32220;49.808;9.968;2023-04-15T04:12:40;3.60;;;3.30;;
46505;SDS011;32220;49.808;9.968;2023-04-15T04:15:10;3.37;;;3.07;;
46505;SDS011;32220;49.808;9.968;2023-04-15T04:17:39;4.07;;;3.60;;
46505;SDS011;32220;49.808;9.968;2023-04-15T04:20:08;4.17;;;3.30;;
46505;SDS011;32220;49.808;9.968;2023-04-15T04:22:38;3.67;;;3.37;;
46505;SDS011;32220;49.808;9.968;2023-04-15T04:25:08;4.07;;;3.60;;
46505;SDS011;32220;49.808;9.968;2023-04-15T04:27:39;7.13;;;3.60;;
46505;SDS011;32220;49.808;9.968;2023-04-15T04:30:08;3.80;;;3.47;;
46505;SDS011;32220;49.808;9.968;2023-04-15T04:32:37;4.47;;;3.17;;
46505;SDS011;32220;49.808;9.968;2023-04-15T04:35:07;5.93;;;3.50;;
46505;SDS011;32220;49.808;9.968;2023-04-15T04:37:37;3.97;;;3.57;;
46505;SDS011;32220;49.808;9.968;2023-04-15T04:40:07;4.10;;;3.37;;
46505;SDS011;32220;49.808;9.968;2023-04-15T04:42:37;4.20;;;3.27;;
46505;SDS011;32220;49.808;9.968;2023-04-15T04:45:08;5.50;;;3.30;;
46505;SDS011;32220;49.808;9.968;2023-04-15T04:47:37;4.37;;;3.97;;
46505;SDS011;32220;49.808;9.968;2023-04-15T04:50:06;4.17;;;3.70;;
46505;SDS011;32220;49.808;9.968;2023-04-15T04:52:36;5.17;;;3.93;;
46505;SDS011;32220;49.808;9.968;2023-04-15T04:55:06;4.60;;;3.30;;
46505;SDS011;32220;49.808;9.968;2023-04-15T04:57:36;5.23;;;3.97;;
46505;SDS011;32220;49.808;9.968;2023-04-15T05:00:08;4.30;;;3.90;;
46505;SDS011;32220;49.808;9.968;2023-04-15T05:02:38;4.43;;;3.67;;
46505;SDS011;32220;49.808;9.968;2023-04-15T05:05:10;4.67;;;3.47;;
46505;SDS011;32220;49.808;9.968;2023-04-15T05:07:39;5.43;;;3.60;;
46505;SDS011;32220;49.808;9.968;2023-04-15T05:10:08;5.37;;;3.97;;
46505;SDS011;32220;49.808;9.968;2023-04-15T05:12:38;4.40;;;3.70;;
46505;SDS011;32220;49.808;9.968;2023-04-15T05:15:09;5.33;;;4.17;;
46505;SDS011;32220;49.808;9.968;2023-04-15T05:17:38;5.47;;;4.17;;
46505;SDS011;32220;49.808;9.968;2023-04-15T05:20:07;4.70;;;3.40;;
46505;SDS011;32220;49.808;9.968;2023-04-15T05:22:38;4.20;;;3.80;;
46505;SDS011;32220;49.808;9.968;2023-04-15T05:25:07;3.47;;;3.13;;
46505;SDS011;32220;49.808;9.968;2023-04-15T05:27:36;3.60;;;3.30;;
46505;SDS011;32220;49.808;9.968;2023-04-15T05:30:06;5.07;;;3.60;;
46505;SDS011;32220;49.808;9.968;2023-04-15T05:32:38;4.47;;;3.47;;
46505;SDS011;32220;49.808;9.968;2023-04-15T05:35:07;4.17;;;3.50;;
46505;SDS011;32220;49.808;9.968;2023-04-15T05:37:36;4.60;;;3.33;;
46505;SDS011;32220;49.808;9.968;2023-04-15T05:40:06;3.77;;;3.37;;
46505;SDS011;32220;49.808;9.968;2023-04-15T05:42:36;4.20;;;3.37;;
46505;SDS011;32220;49.808;9.968;2023-04-15T05:45:06;2.93;;;2.73;;
46505;SDS011;32220;49.808;9.968;2023-04-15T05:47:37;4.23;;;3.13;;
46505;SDS011;32220;49.808;9.968;2023-04-15T05:50:06;3.80;;;3.43;;
46505;SDS011;32220;49.808;9.968;2023-04-15T05:52:35;5.33;;;3.60;;
46505;SDS011;32220;49.808;9.968;2023-04-15T05:55:05;3.10;;;2.80;;
46505;SDS011;32220;49.808;9.968;2023-04-15T05:57:34;3.07;;;2.87;;
46505;SDS011;32220;49.808;9.968;2023-04-15T06:00:04;3.40;;;3.10;;
46505;SDS011;32220;49.808;9.968;2023-04-15T06:02:38;3.00;;;2.70;;
46505;SDS011;32220;49.808;9.968;2023-04-15T06:05:08;4.00;;;3.13;;
46505;SDS011;32220;49.808;9.968;2023-04-15T06:07:38;4.00;;;3.60;;
46505;SDS011;32220;49.808;9.968;2023-04-15T06:10:07;3.87;;;3.50;;
46505;SDS011;32220;49.808;9.968;2023-04-15T06:12:37;4.53;;;3.00;;
46505;SDS011;32220;49.808;9.968;2023-04-15T06:15:06;6.97;;;3.47;;
46505;SDS011;32220;49.808;9.968;2023-04-15T06:17:39;5.20;;;3.73;;
46505;SDS011;32220;49.808;9.968;2023-04-15T06:20:08;5.60;;;4.10;;
46505;SDS011;32220;49.808;9.968;2023-04-15T06:22:38;4.00;;;3.60;;
46505;SDS011;32220;49.808;9.968;2023-04-15T06:25:07;4.13;;;3.43;;
46505;SDS011;32220;49.808;9.968;2023-04-15T06:27:37;3.27;;;2.97;;
46505;SDS011;32220;49.808;9.968;2023-04-15T06:30:06;3.63;;;3.23;;
46505;SDS011;32220;49.808;9.968;2023-04-15T06:32:36;3.03;;;2.63;;
46505;SDS011;32220;49.808;9.968;2023-04-15T06:35:07;4.60;;;3.20;;
46505;SDS011;32220;49.808;9.968;2023-04-15T06:37:36;3.53;;;3.13;;
46505;SDS011;32220;49.808;9.968;2023-04-15T06:40:07;3.17;;;2.87;;
46505;SDS011;32220;49.808;9.968;2023-04-15T06:42:37;4.87;;;2.90;;
46505;SDS011;32220;49.808;9.968;2023-04-15T06:45:06;3.70;;;3.37;;
46505;SDS011;32220;49.808;9.968;2023-04-15T06:47:36;3.80;;;3.50;;
46505;SDS011;32220;49.808;9.968;2023-04-15T06:50:08;3.63;;;2.90;;
46505;SDS011;32220;49.808;9.968;2023-04-15T06:52:37;2.87;;;2.53;;
46505;SDS011;32220;49.808;9.968;2023-04-15T06:55:07;3.60;;;2.90;;
46505;SDS011;32220;49.808;9.968;2023-04-15T06:57:36;3.47;;;3.27;;
46505;SDS011;32220;49.808;9.968;2023-04-15T07:00:06;3.53;;;3.23;;
46505;SDS011;32220;49.808;9.968;2023-04-15T07:02:37;4.57;;;2.63;;
46505;SDS011;32220;49.808;9.968;2023-04-15T07:05:08;4.73;;;3.37;;
46505;SDS011;32220;49.808;9.968;2023-04-15T07:07:37;3.20;;;3.00;;
46505;SDS011;32220;49.808;9.968;2023-04-15T07:10:06;3.83;;;3.47;;
46505;SDS011;32220;49.808;9.968;2023-04-15T07:12:38;3.13;;;2.83;;
46505;SDS011;32220;49.808;9.968;2023-04-15T07:15:07;4.23;;;3.10;;
46505;SDS011;32220;49.808;9.968;2023-04-15T07:17:37;3.67;;;3.37;;
46505;SDS011;32220;49.808;9.968;2023-04-15T07:20:08;3.87;;;3.23;;
46505;SDS011;32220;49.808;9.968;2023-04-15T07:22:39;3.60;;;3.10;;
46505;SDS011;32220;49.808;9.968;2023-04-15T07:25:08;4.13;;;3.10;;
46505;SDS011;32220;49.808;9.968;2023-04-15T07:27:37;3.70;;;3.40;;
46505;SDS011;32220;49.808;9.968;2023-04-15T07:30:06;3.60;;;3.30;;
46505;SDS011;32220;49.808;9.968;2023-04-15T07:32:36;3.87;;;3.37;;
46505;SDS011;32220;49.808;9.968;2023-04-15T07:35:06;3.73;;;3.37;;
46505;SDS011;32220;49.808;9.968;2023-04-15T07:37:37;6.00;;;4.30;;
46505;SDS011;32220;49.808;9.968;2023-04-15T07:40:08;3.97;;;3.60;;
46505;SDS011;32220;49.808;9.968;2023-04-15T07:42:38;4.40;;;4.00;;
46505;SDS011;32220;49.808;9.968;2023-04-15T07:45:07;6.13;;;3.70;;
46505;SDS011;32220;49.808;9.968;2023-04-15T07:47:36;4.30;;;3.90;;
46505;SDS011;32220;49.808;9.968;2023-04-15T07:50:08;4.20;;;3.80;;
46505;SDS011;32220;49.808;9.968;2023-04-15T07:52:38;4.80;;;4.40;;
46505;SDS011;32220;49.808;9.968;2023-04-15T07:55:07;4.33;;;3.93;;
46505;SDS011;32220;49.808;9.968;2023-04-15T07:57:36;5.20;;;4.03;;
46505;SDS011;32220;49.808;9.968;2023-04-15T08:00:06;6.40;;;4.40;;
46505;SDS011;32220;49.808;9.968;2023-04-15T08:02:42;4.50;;;4.00;;
46505;SDS011;32220;49.808;9.968;2023-04-15T08:05:13;4.80;;;3.90;;
46505;SDS011;32220;49.808;9.968;2023-04-15T08:07:42;4.73;;;3.73;;
46505;SDS011;32220;49.808;9.968;2023-04-15T08:10:11;4.07;;;3.67;;
46505;SDS011;32220;49.808;9.968;2023-04-15T08:12:40;4.23;;;3.87;;
46505;SDS011;32220;49.808;9.968;2023-04-15T08:15:09;3.77;;;3.47;;
46505;SDS011;32220;49.808;9.968;2023-04-15T08:17:39;3.70;;;3.40;;
46505;SDS011;32220;49.808;9.968;2023-04-15T08:20:08;3.70;;;3.40;;
46505;SDS011;32220;49.808;9.968;2023-04-15T08:22:39;5.07;;;3.70;;
46505;SDS011;32220;49.808;9.968;2023-04-15T08:25:08;3.83;;;3.40;;
46505;SDS011;32220;49.808;9.968;2023-04-15T08:27:38;3.57;;;3.27;;
46505;SDS011;32220;49.808;9.968;2023-04-15T08:30:07;4.00;;;3.60;;
46505;SDS011;32220;49.808;9.968;2023-04-15T08:32:37;4.07;;;3.50;;
46505;SDS011;32220;49.808;9.968;2023-04-15T08:35:06;4.40;;;4.00;;
46505;SDS011;32220;49.808;9.968;2023-04-15T08:37:36;3.40;;;3.10;;
46505;SDS011;32220;49.808;9.968;2023-04-15T08:40:08;3.80;;;3.43;;
46505;SDS011;32220;49.808;9.968;2023-04-15T08:42:40;3.73;;;3.23;;
46505;SDS011;32220;49.808;9.968;2023-04-15T08:45:11;3.70;;;3.37;;
46505;SDS011;32220;49.808;9.968;2023-04-15T08:47:40;3.97;;;3.20;;
46505;SDS011;32220;49.808;9.968;2023-04-15T08:50:13;3.47;;;3.17;;
46505;SDS011;32220;49.808;9.968;2023-04-15T08:52:42;3.63;;;2.80;;
46505;SDS011;32220;49.808;9.968;2023-04-15T08:55:13;3.27;;;2.97;;
46505;SDS011;32220;49.808;9.968;2023-04-15T08:57:43;3.13;;;2.83;;
46505;SDS011;32220;49.808;9.968;2023-04-15T09:00:12;2.70;;;2.50;;
46505;SDS011;32220;49.808;9.968;2023-04-15T09:02:42;3.00;;;2.80;;
46505;SDS011;32220;49.808;9.968;2023-04-15T09:05:11;2.57;;;2.37;;
46505;SDS011;32220;49.808;9.968;2023-04-15T09:07:40;2.80;;;2.60;;
46505;SDS011;32220;49.808;9.968;2023-04-15T09:10:10;2.47;;;2.27;;
46505;SDS011;32220;49.808;9.968;2023-04-15T09:12:40;2.50;;;2.30;;
46505;SDS011;32220;49.808;9.968;2023-04-15T09:15:10;2.30;;;2.10;;
46505;SDS011;32220;49.808;9.968;2023-04-15T09:17:41;2.50;;;2.30;;
46505;SDS011;32220;49.808;9.968;2023-04-15T09:20:11;1.90;;;1.80;;
46505;SDS011;32220;49.808;9.968;2023-04-15T09:22:42;1.87;;;1.77;;
46505;SDS011;32220;49.808;9.968;2023-04-15T09:25:25;2.20;;;2.00;;
46505;SDS011;32220;49.808;9.968;2023-04-15T09:27:59;2.07;;;1.87;;
46505;SDS011;32220;49.808;9.968;2023-04-15T09:30:29;2.20;;;1.90;;
46505;SDS011;32220;49.808;9.968;2023-04-15T09:32:58;2.20;;;2.00;;
46505;SDS011;32220;49.808;9.968;2023-04-15T09:35:29;2.60;;;2.10;;
46505;SDS011;32220;49.808;9.968;2023-04-15T09:38:01;2.20;;;2.00;;
46505;SDS011;32220;49.808;9.968;2023-04-15T09:40:32;2.53;;;2.33;;
46505;SDS011;32220;49.808;9.968;2023-04-15T09:43:04;2.67;;;2.30;;
46505;SDS011;32220;49.808;9.968;2023-04-15T09:45:34;2.07;;;1.97;;
46505;SDS011;32220;49.808;9.968;2023-04-15T09:50:48;2.67;;;1.70;;
46505;SDS011;32220;49.808;9.968;2023-04-15T09:53:20;2.00;;;1.90;;
46505;SDS011;32220;49.808;9.968;2023-04-15T09:55:50;1.90;;;1.80;;
46505;SDS011;32220;49.808;9.968;2023-04-15T09:58:22;1.87;;;1.70;;
46505;SDS011;32220;49.808;9.968;2023-04-15T10:00:53;2.37;;;2.17;;
46505;SDS011;32220;49.808;9.968;2023-04-15T10:03:24;1.93;;;1.50;;
46505;SDS011;32220;49.808;9.968;2023-04-15T10:05:55;2.57;;;1.80;;
46505;SDS011;32220;49.808;9.968;2023-04-15T10:08:26;1.83;;;1.50;;
46505;SDS011;32220;49.808;9.968;2023-04-15T10:10:56;1.67;;;1.57;;
46505;SDS011;32220;49.808;9.968;2023-04-15T10:13:28;2.00;;;1.40;;
46505;SDS011;32220;49.808;9.968;2023-04-15T10:16:00;2.07;;;1.27;;
46505;SDS011;32220;49.808;9.968;2023-04-15T10:18:34;2.17;;;1.17;;
46505;SDS011;32220;49.808;9.968;2023-04-15T10:21:05;1.23;;;1.07;;
46505;SDS011;32220;49.808;9.968;2023-04-15T10:23:36;1.30;;;1.13;;
46505;SDS011;32220;49.808;9.968;2023-04-15T10:26:06;1.50;;;1.30;;
46505;SDS011;32220;49.808;9.968;2023-04-15T10:28:37;2.23;;;1.30;;
46505;SDS011;32220;49.808;9.968;2023-04-15T10:31:06;2.30;;;1.30;;
46505;SDS011;32220;49.808;9.968;2023-04-15T10:33:36;1.00;;;0.87;;
46505;SDS011;32220;49.808;9.968;2023-04-15T10:36:06;1.73;;;1.10;;
46505;SDS011;32220;49.808;9.968;2023-04-15T10:38:36;2.03;;;1.40;;
46505;SDS011;32220;49.808;9.968;2023-04-15T10:41:13;1.57;;;1.20;;
46505;SDS011;32220;49.808;9.968;2023-04-15T10:43:46;1.10;;;1.00;;
46505;SDS011;32220;49.808;9.968;2023-04-15T10:46:20;1.20;;;1.00;;
46505;SDS011;32220;49.808;9.968;2023-04-15T10:48:52;1.37;;;1.00;;
46505;SDS011;32220;49.808;9.968;2023-04-15T10:51:28;1.73;;;1.23;;
46505;SDS011;32220;49.808;9.968;2023-04-15T10:53:59;1.00;;;0.80;;
46505;SDS011;32220;49.808;9.968;2023-04-15T10:56:28;1.20;;;0.90;;
46505;SDS011;32220;49.808;9.968;2023-04-15T10:59:00;1.10;;;0.90;;
46505;SDS011;32220;49.808;9.968;2023-04-15T11:07:33;1.37;;;1.20;;
46505;SDS011;32220;49.808;9.968;2023-04-15T11:10:03;0.97;;;0.97;;
46505;SDS011;32220;49.808;9.968;2023-04-15T11:12:57;1.40;;;1.30;;
46505;SDS011;32220;49.808;9.968;2023-04-15T11:15:29;2.07;;;1.37;;
46505;SDS011;32220;49.808;9.968;2023-04-15T11:18:07;1.73;;;1.10;;
46505;SDS011;32220;49.808;9.968;2023-04-15T11:20:38;1.33;;;1.23;;
46505;SDS011;32220;49.808;9.968;2023-04-15T11:23:08;1.30;;;1.20;;
46505;SDS011;32220;49.808;9.968;2023-04-15T11:25:37;1.87;;;1.00;;
46505;SDS011;32220;49.808;9.968;2023-04-15T11:28:06;1.50;;;1.40;;
46505;SDS011;32220;49.808;9.968;2023-04-15T11:30:36;1.40;;;1.30;;
46505;SDS011;32220;49.808;9.968;2023-04-15T11:33:06;1.40;;;1.30;;
46505;SDS011;32220;49.808;9.968;2023-04-15T11:35:39;1.83;;;1.33;;
46505;SDS011;32220;49.808;9.968;2023-04-15T11:38:10;1.27;;;1.20;;
46505;SDS011;32220;49.808;9.968;2023-04-15T11:40:40;1.57;;;1.47;;
46505;SDS011;32220;49.808;9.968;2023-04-15T11:43:11;1.40;;;1.30;;
46505;SDS011;32220;49.808;9.968;2023-04-15T11:45:53;1.60;;;1.50;;
46505;SDS011;32220;49.808;9.968;2023-04-15T11:48:23;1.63;;;1.53;;
46505;SDS011;32220;49.808;9.968;2023-04-15T11:50:57;1.70;;;1.60;;
46505;SDS011;32220;49.808;9.968;2023-04-15T11:53:34;1.50;;;1.40;;
46505;SDS011;32220;49.808;9.968;2023-04-15T11:56:04;1.00;;;0.97;;
46505;SDS011;32220;49.808;9.968;2023-04-15T11:58:33;0.90;;;0.90;;
46505;SDS011;32220;49.808;9.968;2023-04-15T12:01:05;1.37;;;0.90;;
46505;SDS011;32220;49.808;9.968;2023-04-15T12:03:37;1.60;;;1.00;;
46505;SDS011;32220;49.808;9.968;2023-04-15T12:06:08;1.30;;;1.17;;
46505;SDS011;32220;49.808;9.968;2023-04-15T12:08:57;1.07;;;1.07;;
46505;SDS011;32220;49.808;9.968;2023-04-15T12:11:28;2.03;;;1.20;;
46505;SDS011;32220;49.808;9.968;2023-04-15T12:14:19;1.23;;;1.13;;
46505;SDS011;32220;49.808;9.968;2023-04-15T12:16:52;1.27;;;1.17;;
46505;SDS011;32220;49.808;9.968;2023-04-15T12:19:22;1.53;;;1.43;;
46505;SDS011;32220;49.808;9.968;2023-04-15T12:21:52;2.00;;;1.40;;
46505;SDS011;32220;49.808;9.968;2023-04-15T12:24:23;1.50;;;1.40;;
46505;SDS011;32220;49.808;9.968;2023-04-15T12:26:52;1.60;;;1.40;;
46505;SDS011;32220;49.808;9.968;2023-04-15T12:29:23;1.77;;;1.40;;
46505;SDS011;32220;49.808;9.968;2023-04-15T12:31:55;1.43;;;1.33;;
46505;SDS011;32220;49.808;9.968;2023-04-15T12:34:25;1.37;;;1.27;;
46505;SDS011;32220;49.808;9.968;2023-04-15T12:36:54;1.40;;;1.30;;
46505;SDS011;32220;49.808;9.968;2023-04-15T12:39:23;1.60;;;1.50;;
46505;SDS011;32220;49.808;9.968;2023-04-15T12:41:52;2.13;;;1.23;;
46505;SDS011;32220;49.808;9.968;2023-04-15T12:44:21;1.50;;;1.40;;
46505;SDS011;32220;49.808;9.968;2023-04-15T12:46:50;2.80;;;1.30;;
46505;SDS011;32220;49.808;9.968;2023-04-15T12:49:20;1.40;;;1.30;;
46505;SDS011;32220;49.808;9.968;2023-04-15T12:51:49;1.70;;;1.60;;
46505;SDS011;32220;49.808;9.968;2023-04-15T12:54:18;2.33;;;1.20;;
46505;SDS011;32220;49.808;9.968;2023-04-15T12:56:47;1.70;;;1.60;;
46505;SDS011;32220;49.808;9.968;2023-04-15T12:59:16;2.50;;;1.50;;
46505;SDS011;32220;49.808;9.968;2023-04-15T13:01:44;2.37;;;1.60;;
46505;SDS011;32220;49.808;9.968;2023-04-15T13:04:12;1.70;;;1.50;;
46505;SDS011;32220;49.808;9.968;2023-04-15T13:06:41;1.63;;;1.50;;
46505;SDS011;32220;49.808;9.968;2023-04-15T13:09:11;1.80;;;1.70;;
46505;SDS011;32220;49.808;9.968;2023-04-15T13:11:39;1.73;;;1.60;;
46505;SDS011;32220;49.808;9.968;2023-04-15T13:14:07;1.93;;;1.60;;
46505;SDS011;32220;49.808;9.968;2023-04-15T13:16:36;1.70;;;1.57;;
46505;SDS011;32220;49.808;9.968;2023-04-15T13:19:04;1.73;;;1.30;;
46505;SDS011;32220;49.808;9.968;2023-04-15T13:21:32;2.20;;;1.30;;
46505;SDS011;32220;49.808;9.968;2023-04-15T13:24:02;2.10;;;1.47;;
46505;SDS011;32220;49.808;9.968;2023-04-15T13:26:31;1.30;;;1.20;;
46505;SDS011;32220;49.808;9.968;2023-04-15T13:28:59;1.50;;;1.40;;
46505;SDS011;32220;49.808;9.968;2023-04-15T13:31:30;1.30;;;1.20;;
46505;SDS011;32220;49.808;9.968;2023-04-15T13:34:00;1.90;;;1.27;;
46505;SDS011;32220;49.808;9.968;2023-04-15T13:36:30;1.50;;;1.40;;
46505;SDS011;32220;49.808;9.968;2023-04-15T13:38:58;1.63;;;1.23;;
46505;SDS011;32220;49.808;9.968;2023-04-15T13:41:27;1.87;;;1.30;;
46505;SDS011;32220;49.808;9.968;2023-04-15T13:43:55;1.73;;;1.37;;
46505;SDS011;32220;49.808;9.968;2023-04-15T13:46:23;1.50;;;1.40;;
46505;SDS011;32220;49.808;9.968;2023-04-15T13:48:51;1.43;;;1.23;;
46505;SDS011;32220;49.808;9.968;2023-04-15T13:51:19;1.60;;;1.50;;
46505;SDS011;32220;49.808;9.968;2023-04-15T13:53:47;1.57;;;1.10;;
46505;SDS011;32220;49.808;9.968;2023-04-15T13:56:14;1.50;;;1.40;;
46505;SDS011;32220;49.808;9.968;2023-04-15T13:58:44;1.40;;;1.30;;
46505;SDS011;32220;49.808;9.968;2023-04-15T14:01:11;1.37;;;1.27;;
46505;SDS011;32220;49.808;9.968;2023-04-15T14:03:39;1.40;;;1.30;;
46505;SDS011;32220;49.808;9.968;2023-04-15T14:06:07;1.00;;;1.00;;
46505;SDS011;32220;49.808;9.968;2023-04-15T14:08:35;0.90;;;0.90;;
46505;SDS011;32220;49.808;9.968;2023-04-15T14:11:02;1.20;;;1.03;;
46505;SDS011;32220;49.808;9.968;2023-04-15T14:13:30;1.13;;;1.10;;
46505;SDS011;32220;49.808;9.968;2023-04-15T14:15:59;1.60;;;1.10;;
46505;SDS011;32220;49.808;9.968;2023-04-15T14:18:27;1.20;;;1.10;;
46505;SDS011;32220;49.808;9.968;2023-04-15T14:20:55;0.97;;;0.93;;
46505;SDS011;32220;49.808;9.968;2023-04-15T14:23:23;1.40;;;1.30;;
46505;SDS011;32220;49.808;9.968;2023-04-15T14:25:51;1.60;;;1.10;;
46505;SDS011;32220;49.808;9.968;2023-04-15T14:28:19;1.00;;;1.00;;
46505;SDS011;32220;49.808;9.968;2023-04-15T14:30:47;0.93;;;0.87;;
46505;SDS011;32220;49.808;9.968;2023-04-15T14:33:16;1.03;;;1.00;;
46505;SDS011;32220;49.808;9.968;2023-04-15T14:35:44;1.63;;;0.90;;
46505;SDS011;32220;49.808;9.968;2023-04-15T14:38:11;1.20;;;1.13;;
46505;SDS011;32220;49.808;9.968;2023-04-15T14:40:39;1.20;;;1.10;;
46505;SDS011;32220;49.808;9.968;2023-04-15T14:43:07;0.80;;;0.80;;
46505;SDS011;32220;49.808;9.968;2023-04-15T14:45:36;1.97;;;1.00;;
46505;SDS011;32220;49.808;9.968;2023-04-15T14:48:04;1.10;;;1.00;;
46505;SDS011;32220;49.808;9.968;2023-04-15T14:50:36;1.13;;;1.03;;
46505;SDS011;32220;49.808;9.968;2023-04-15T14:53:03;1.37;;;1.00;;
46505;SDS011;32220;49.808;9.968;2023-04-15T14:55:32;1.00;;;1.00;;
46505;SDS011;32220;49.808;9.968;2023-04-15T14:58:00;3.57;;;1.27;;
46505;SDS011;32220;49.808;9.968;2023-04-15T15:00:29;1.10;;;1.00;;
46505;SDS011;32220;49.808;9.968;2023-04-15T15:02:57;1.27;;;1.17;;
46505;SDS011;32220;49.808;9.968;2023-04-15T15:05:25;1.10;;;1.00;;
46505;SDS011;32220;49.808;9.968;2023-04-15T15:07:54;1.23;;;1.13;;
46505;SDS011;32220;49.808;9.968;2023-04-15T15:10:22;1.20;;;1.10;;
46505;SDS011;32220;49.808;9.968;2023-04-15T15:12:49;1.60;;;1.50;;